Time;durP1;ratioP1;P1;durP2;ratioP2;P2;SDS_P1;SDS_P2;PMS_P1;PMS_P2;Temp;Humidity;BMP_temperature;BMP_pressure;BME280_temperature;BME280_humidity;BME280_pressure;Samples;Min_cycle;Max_cycle;Signal;HPM_P1;HPM_P2
2022/11/24 00:00:35;;;;;;;3.63;2.08;;;17.30;56.80;;;;;;5013426;28;20272;-70
2022/11/24 00:03:03;;;;;;;3.83;2.00;;;17.20;56.70;;;;;;5012997;28;20204;-70
2022/11/24 00:05:30;;;;;;;2.22;1.80;;;17.30;56.70;;;;;;5013009;28;20660;-70
2022/11/24 00:07:58;;;;;;;3.78;1.77;;;17.20;56.40;;;;;;5014482;28;20259;-70
2022/11/24 00:10:25;;;;;;;2.13;1.50;;;17.20;56.30;;;;;;5014730;28;20227;-70
2022/11/24 00:12:52;;;;;;;2.75;1.67;;;17.20;56.30;;;;;;5027655;28;20211;-70
2022/11/24 00:15:21;;;;;;;2.33;1.60;;;17.20;56.10;;;;;;5014798;28;20201;-70
2022/11/24 00:17:48;;;;;;;2.75;1.70;;;17.10;55.90;;;;;;5013437;28;20278;-70
2022/11/24 00:20:16;;;;;;;3.05;2.05;;;17.10;56.10;;;;;;5012879;28;20220;-70
2022/11/24 00:22:43;;;;;;;3.47;1.80;;;17.10;56.00;;;;;;5016038;28;20204;-70
2022/11/24 00:25:10;;;;;;;2.90;1.70;;;17.10;55.80;;;;;;5018142;28;20212;-70
2022/11/24 00:27:37;;;;;;;2.17;1.73;;;17.00;56.10;;;;;;5016742;28;20638;-70
2022/11/24 00:30:05;;;;;;;2.92;1.77;;;17.00;55.90;;;;;;5016713;28;20216;-70
2022/11/24 00:32:35;;;;;;;1.80;1.40;;;17.00;56.00;;;;;;5016650;28;20231;-70
2022/11/24 00:35:03;;;;;;;3.20;1.52;;;17.00;56.30;;;;;;5017927;28;20284;-70
2022/11/24 00:37:30;;;;;;;3.05;1.70;;;17.00;56.00;;;;;;5016447;28;20192;-70
2022/11/24 00:39:57;;;;;;;3.97;1.73;;;16.90;55.80;;;;;;5016514;28;20303;-70
2022/11/24 00:42:24;;;;;;;2.47;1.95;;;16.90;56.20;;;;;;5016544;28;20615;-70
2022/11/24 00:44:51;;;;;;;3.75;1.63;;;16.90;56.10;;;;;;5017677;28;20643;-70
2022/11/24 00:47:19;;;;;;;3.60;1.95;;;16.90;56.20;;;;;;5016526;28;20216;-70
2022/11/24 00:49:47;;;;;;;3.75;1.73;;;16.90;56.40;;;;;;5016260;28;20267;-70
2022/11/24 00:52:14;;;;;;;2.42;1.58;;;16.90;56.50;;;;;;5016345;28;20196;-70
2022/11/24 00:54:41;;;;;;;3.20;1.92;;;16.80;56.50;;;;;;5017432;28;20185;-70
2022/11/24 00:57:09;;;;;;;2.92;1.67;;;16.80;56.40;;;;;;5016691;28;20283;-70
2022/11/24 00:59:35;;;;;;;2.65;1.80;;;16.80;56.80;;;;;;5017177;28;20307;-70
2022/11/24 01:02:03;;;;;;;3.10;1.63;;;16.80;56.50;;;;;;5016570;28;20224;-70
2022/11/24 01:04:30;;;;;;;2.15;1.52;;;16.80;56.30;;;;;;5020886;28;20201;-70
2022/11/24 01:06:59;;;;;;;2.63;1.70;;;16.80;56.40;;;;;;5021765;28;20264;-70
2022/11/24 01:09:26;;;;;;;2.95;1.40;;;16.80;56.70;;;;;;5018988;28;20703;-70
2022/11/24 01:12:03;;;;;;;2.88;1.65;;;16.80;56.30;;;;;;5015978;28;20207;-70
2022/11/24 01:14:31;;;;;;;3.28;1.60;;;16.80;56.30;;;;;;5015958;28;20199;-70
2022/11/24 01:16:58;;;;;;;3.00;1.73;;;16.80;56.90;;;;;;5015888;28;20197;-70
2022/11/24 01:19:26;;;;;;;2.25;1.50;;;16.70;56.20;;;;;;5015743;28;20221;-70
2022/11/24 01:21:53;;;;;;;1.90;1.40;;;16.70;56.20;;;;;;5015745;28;20360;-70
2022/11/24 01:24:22;;;;;;;2.70;1.42;;;16.70;56.20;;;;;;5015848;28;20546;-70
2022/11/24 01:26:50;;;;;;;1.67;1.42;;;16.70;55.80;;;;;;5015540;28;20220;-70
2022/11/24 01:29:17;;;;;;;2.28;1.48;;;16.70;56.00;;;;;;5015616;28;20217;-70
2022/11/24 01:31:44;;;;;;;1.60;1.40;;;16.70;56.10;;;;;;5015562;28;20197;-70
2022/11/24 01:34:12;;;;;;;3.58;1.35;;;16.70;55.80;;;;;;5014369;28;20660;-70
2022/11/24 01:36:39;;;;;;;2.42;1.55;;;16.70;55.60;;;;;;5015394;28;20617;-70
2022/11/24 01:39:06;;;;;;;4.10;1.90;;;16.70;55.50;;;;;;5015599;28;20267;-70
2022/11/24 01:41:35;;;;;;;2.88;1.60;;;16.70;55.50;;;;;;5016492;28;20220;-70
2022/11/24 01:44:20;;;;;;;4.18;1.80;;;16.70;55.40;;;;;;5015105;28;20235;-70
2022/11/24 01:46:48;;;;;;;1.77;1.60;;;16.70;55.20;;;;;;5015246;28;20235;-70
2022/11/24 01:49:16;;;;;;;1.77;1.60;;;16.70;55.20;;;;;;5015778;28;20274;-70
2022/11/24 01:51:45;;;;;;;2.00;1.50;;;16.70;55.10;;;;;;5016352;28;20674;-70
2022/11/24 01:54:15;;;;;;;2.97;1.60;;;16.70;55.20;;;;;;5015107;28;20208;-70
2022/11/24 01:56:46;;;;;;;2.78;1.50;;;16.60;55.00;;;;;;5015820;28;20208;-70
2022/11/24 01:59:13;;;;;;;2.08;1.42;;;16.60;55.20;;;;;;5014972;28;20223;-70
2022/11/24 02:01:41;;;;;;;2.72;1.65;;;16.60;55.20;;;;;;5014998;28;20208;-70
2022/11/24 02:04:10;;;;;;;1.95;1.60;;;16.60;55.10;;;;;;5015137;28;20284;-70
2022/11/24 02:06:37;;;;;;;2.30;1.48;;;16.60;55.10;;;;;;5014838;28;20288;-70
2022/11/24 02:09:08;;;;;;;2.45;1.60;;;16.60;55.10;;;;;;5015499;28;20299;-70
2022/11/24 02:11:36;;;;;;;2.53;1.60;;;16.60;55.10;;;;;;5015657;28;20223;-70
2022/11/24 02:14:04;;;;;;;2.47;1.70;;;16.60;55.10;;;;;;5014811;28;20652;-70
2022/11/24 02:16:32;;;;;;;3.15;1.60;;;16.60;55.10;;;;;;5014633;28;20251;-70
2022/11/24 02:18:59;;;;;;;2.42;1.50;;;16.60;55.20;;;;;;5015925;28;20231;-70
2022/11/24 02:21:26;;;;;;;2.53;1.45;;;16.60;55.20;;;;;;5015860;28;20617;-70
2022/11/24 02:23:57;;;;;;;3.08;1.50;;;16.50;55.10;;;;;;5014711;28;20201;-70
2022/11/24 02:26:31;;;;;;;2.22;1.65;;;16.60;55.20;;;;;;5015520;28;20596;-70
2022/11/24 02:28:58;;;;;;;2.55;1.30;;;16.50;55.20;;;;;;5014591;28;20217;-70
2022/11/24 02:31:25;;;;;;;1.90;1.35;;;16.60;55.20;;;;;;5015777;28;20200;-70
2022/11/24 02:33:52;;;;;;;2.10;1.40;;;16.50;55.10;;;;;;5015362;28;20283;-70
2022/11/24 02:36:20;;;;;;;2.38;1.67;;;16.50;55.00;;;;;;5014418;28;20272;-70
2022/11/24 02:38:47;;;;;;;1.67;1.35;;;16.50;55.00;;;;;;5014635;28;20266;-70
2022/11/24 02:41:16;;;;;;;2.95;1.42;;;16.50;55.00;;;;;;5014555;28;20232;-70
2022/11/24 02:43:46;;;;;;;3.20;1.55;;;16.50;55.10;;;;;;5014249;28;20209;-70
2022/11/24 02:46:14;;;;;;;2.88;1.60;;;16.50;55.10;;;;;;5015560;28;20204;-70
2022/11/24 02:48:41;;;;;;;2.03;1.33;;;16.50;55.10;;;;;;5015758;28;20676;-70
2022/11/24 02:51:08;;;;;;;2.53;1.50;;;16.50;55.10;;;;;;5014935;28;20280;-70
2022/11/24 02:53:36;;;;;;;2.03;1.45;;;16.50;55.00;;;;;;5014228;28;20626;-70
2022/11/24 02:56:03;;;;;;;2.22;1.70;;;16.50;54.90;;;;;;5014248;28;20275;-70
2022/11/24 02:58:30;;;;;;;1.60;1.27;;;16.50;54.80;;;;;;5014011;28;20213;-70
2022/11/24 03:00:59;;;;;;;2.72;1.48;;;16.40;54.90;;;;;;5014188;28;20255;-70
2022/11/24 03:03:26;;;;;;;1.90;1.30;;;16.50;55.00;;;;;;5015163;28;20268;-70
2022/11/24 03:05:53;;;;;;;1.58;1.45;;;16.40;54.90;;;;;;5014286;28;20299;-70
2022/11/24 03:08:21;;;;;;;1.73;1.50;;;16.40;55.00;;;;;;5013723;28;20586;-70
2022/11/24 03:10:49;;;;;;;2.95;1.50;;;16.40;54.90;;;;;;5014031;28;20569;-70
2022/11/24 03:13:16;;;;;;;2.40;1.40;;;16.40;54.90;;;;;;5014862;28;20197;-70
2022/11/24 03:15:43;;;;;;;1.83;1.30;;;16.40;54.90;;;;;;5013807;28;20259;-70
2022/11/24 03:18:12;;;;;;;1.73;1.25;;;16.40;54.90;;;;;;5013859;28;20231;-70
2022/11/24 03:20:41;;;;;;;1.90;1.48;;;16.40;54.80;;;;;;5014286;28;20207;-70
2022/11/24 03:23:08;;;;;;;2.58;1.40;;;16.40;55.20;;;;;;5013788;28;20291;-70
2022/11/24 03:25:35;;;;;;;1.70;1.38;;;16.40;54.90;;;;;;5013566;28;20256;-70
2022/11/24 03:28:03;;;;;;;2.78;1.30;;;16.30;54.80;;;;;;5013620;28;20304;-70
2022/11/24 03:30:30;;;;;;;2.65;1.40;;;16.30;54.80;;;;;;5013520;28;20660;-70
2022/11/24 03:32:58;;;;;;;3.28;1.48;;;16.30;54.80;;;;;;5013421;28;20197;-70
2022/11/24 03:35:27;;;;;;;2.63;1.50;;;16.30;54.90;;;;;;5013337;28;20569;-70
2022/11/24 03:37:54;;;;;;;1.83;1.25;;;16.30;54.80;;;;;;5013376;28;20251;-70
2022/11/24 03:40:21;;;;;;;1.48;1.17;;;16.30;54.80;;;;;;5013232;28;20275;-70
2022/11/24 03:42:48;;;;;;;1.98;1.20;;;16.20;54.90;;;;;;5013058;28;20324;-70
2022/11/24 03:45:16;;;;;;;1.95;1.30;;;16.30;54.90;;;;;;5013173;28;20197;-70
2022/11/24 03:47:43;;;;;;;1.50;1.20;;;16.30;54.80;;;;;;5013108;28;20307;-70
2022/11/24 03:50:10;;;;;;;1.40;1.30;;;16.20;54.90;;;;;;5013443;28;20316;-70
2022/11/24 03:52:38;;;;;;;2.40;1.38;;;16.20;54.90;;;;;;5013132;28;20306;-70
2022/11/24 03:55:06;;;;;;;1.33;1.13;;;16.20;54.80;;;;;;5014326;28;20185;-70
2022/11/24 03:57:34;;;;;;;1.35;1.25;;;16.20;54.80;;;;;;5012639;28;20235;-70
2022/11/24 04:00:01;;;;;;;1.67;1.33;;;16.20;54.70;;;;;;5012852;28;20244;-70
2022/11/24 04:02:32;;;;;;;2.22;1.48;;;16.20;55.40;;;;;;5014670;28;20542;-70
2022/11/24 04:04:59;;;;;;;1.55;1.30;;;16.20;54.70;;;;;;5012864;28;20291;-70
2022/11/24 04:07:26;;;;;;;1.77;1.20;;;16.20;54.80;;;;;;5013134;28;20220;-70
2022/11/24 04:09:55;;;;;;;1.75;1.30;;;16.20;54.70;;;;;;5012756;28;20225;-70
2022/11/24 04:15:07;;;;;;;1.85;1.42;;;16.10;54.70;;;;;;5012880;28;20188;-70
2022/11/24 04:17:35;;;;;;;1.58;1.20;;;16.10;54.70;;;;;;5014181;28;20555;-70
2022/11/24 04:20:02;;;;;;;3.00;1.30;;;16.10;55.30;;;;;;5012616;28;20225;-70
2022/11/24 04:22:29;;;;;;;2.15;1.50;;;16.10;55.40;;;;;;5012890;28;20562;-70
2022/11/24 04:24:57;;;;;;;1.73;1.15;;;16.10;55.50;;;;;;5012776;28;20240;-70
2022/11/24 04:27:25;;;;;;;2.85;1.40;;;16.10;55.60;;;;;;5012578;28;20217;-70
2022/11/24 04:29:52;;;;;;;1.38;1.25;;;16.00;55.50;;;;;;5012651;28;20221;-70
2022/11/24 04:32:19;;;;;;;1.27;1.17;;;16.00;55.50;;;;;;5012724;28;20200;-70
2022/11/24 04:34:46;;;;;;;1.77;1.38;;;16.00;55.60;;;;;;5012651;28;20197;-71
2022/11/24 04:37:13;;;;;;;1.45;1.23;;;16.00;55.60;;;;;;5014262;28;20197;-70
2022/11/24 04:39:40;;;;;;;1.33;1.10;;;16.00;55.70;;;;;;5013837;28;20212;-70
2022/11/24 04:42:09;;;;;;;1.60;1.20;;;16.00;55.40;;;;;;5012520;28;20205;-70
2022/11/24 04:44:36;;;;;;;1.42;1.10;;;16.00;55.40;;;;;;5012971;28;20193;-70
2022/11/24 04:47:03;;;;;;;1.63;1.10;;;16.00;55.20;;;;;;5012540;28;20197;-70
2022/11/24 04:49:30;;;;;;;1.17;0.90;;;16.00;55.40;;;;;;5013708;28;20671;-70
2022/11/24 04:51:57;;;;;;;1.60;1.20;;;16.00;55.00;;;;;;5012608;28;20208;-70
2022/11/24 04:54:24;;;;;;;1.10;1.00;;;16.00;55.00;;;;;;5013508;28;20207;-70
2022/11/24 04:56:51;;;;;;;3.35;1.27;;;16.10;55.00;;;;;;5013041;28;20211;-70
2022/11/24 04:59:19;;;;;;;1.65;1.27;;;16.10;54.90;;;;;;5012342;28;20235;-70
2022/11/24 05:01:47;;;;;;;2.33;1.42;;;16.10;54.80;;;;;;5012490;28;20207;-70
2022/11/24 05:04:14;;;;;;;1.50;1.13;;;16.10;54.70;;;;;;5012366;28;20220;-70
2022/11/24 05:06:42;;;;;;;2.67;1.10;;;16.10;54.60;;;;;;5012351;28;20684;-70
2022/11/24 05:09:09;;;;;;;1.67;1.20;;;16.10;54.50;;;;;;5015711;28;20235;-70
2022/11/24 05:11:36;;;;;;;1.92;1.33;;;16.20;54.50;;;;;;5016015;28;20296;-70
2022/11/24 05:14:03;;;;;;;1.88;0.93;;;16.10;54.40;;;;;;5015902;28;20212;-70
2022/11/24 05:16:32;;;;;;;1.30;1.20;;;16.20;54.40;;;;;;5016308;28;20211;-70
2022/11/24 05:18:59;;;;;;;1.38;1.10;;;16.20;54.40;;;;;;5016001;28;20266;-70
2022/11/24 05:21:26;;;;;;;1.95;1.30;;;16.20;54.40;;;;;;5015993;28;20200;-70
2022/11/24 05:23:53;;;;;;;1.20;1.00;;;16.20;54.40;;;;;;5017086;28;20279;-70
2022/11/24 05:26:20;;;;;;;1.80;1.20;;;16.20;54.20;;;;;;5016002;28;20201;-70
2022/11/24 05:28:48;;;;;;;1.40;1.10;;;16.20;54.20;;;;;;5016110;28;20238;-70
2022/11/24 05:31:15;;;;;;;1.05;1.00;;;16.20;54.10;;;;;;5015742;28;20204;-70
2022/11/24 05:33:44;;;;;;;1.23;1.10;;;16.30;54.00;;;;;;5016933;28;20223;-70
2022/11/24 05:36:51;;;;;;;1.45;1.20;;;16.20;54.00;;;;;;5015744;28;20201;-70
2022/11/24 05:38:59;;;;;;;1.35;1.23;;;16.20;53.90;;;;;;5015417;28;20220;-70
2022/11/24 05:41:26;;;;;;;1.80;1.15;;;16.30;54.00;;;;;;5015353;28;20571;-70
2022/11/24 05:43:52;;;;;;;1.70;0.90;;;16.30;54.00;;;;;;5015826;28;20209;-70
2022/11/24 05:46:19;;;;;;;2.55;1.25;;;16.30;53.90;;;;;;5015510;28;20193;-70
2022/11/24 05:48:48;;;;;;;1.55;1.10;;;16.30;54.00;;;;;;5016337;28;20231;-70
2022/11/24 05:51:15;;;;;;;1.80;1.20;;;16.30;53.90;;;;;;5015199;28;20239;-70
2022/11/24 05:53:42;;;;;;;2.13;1.42;;;16.30;54.00;;;;;;5015216;28;20207;-70
2022/11/24 05:56:09;;;;;;;1.67;1.17;;;16.30;53.80;;;;;;5015487;28;20260;-70
2022/11/24 05:58:36;;;;;;;1.27;1.00;;;16.30;53.70;;;;;;5016170;28;20223;-70
2022/11/24 06:01:06;;;;;;;2.33;1.13;;;16.40;53.90;;;;;;5014977;28;20200;-70
2022/11/24 06:03:33;;;;;;;1.50;1.20;;;16.30;53.70;;;;;;5016222;28;20200;-70
2022/11/24 06:06:02;;;;;;;1.50;1.10;;;16.30;53.60;;;;;;5014781;28;20200;-70
2022/11/24 06:08:29;;;;;;;1.77;1.30;;;16.30;53.60;;;;;;5014679;28;20683;-70
2022/11/24 06:11:15;;;;;;;2.25;1.33;;;16.30;53.60;;;;;;5014750;28;20200;-70
2022/11/24 06:13:44;;;;;;;1.88;1.20;;;16.40;53.60;;;;;;5016340;28;20181;-70
2022/11/24 06:16:11;;;;;;;2.03;1.40;;;16.40;54.20;;;;;;5014735;28;20270;-70
2022/11/24 06:18:38;;;;;;;1.83;1.30;;;16.40;53.50;;;;;;5014492;28;20217;-70
2022/11/24 06:21:07;;;;;;;1.90;1.42;;;16.40;53.50;;;;;;5015410;28;20292;-70
2022/11/24 06:23:34;;;;;;;2.25;1.67;;;16.40;53.50;;;;;;5015550;28;20228;-70
2022/11/24 06:26:01;;;;;;;2.47;1.58;;;16.40;54.20;;;;;;5016490;28;20637;-70
2022/11/24 06:28:28;;;;;;;2.10;1.40;;;16.40;53.70;;;;;;5015996;28;20319;-70
2022/11/24 06:30:55;;;;;;;1.45;1.33;;;16.40;53.70;;;;;;5016624;28;20197;-70
2022/11/24 06:33:23;;;;;;;1.58;1.20;;;16.40;53.70;;;;;;5014862;28;20213;-70
2022/11/24 06:35:50;;;;;;;2.05;1.33;;;16.40;53.60;;;;;;5015374;28;20203;-70
2022/11/24 06:38:18;;;;;;;3.33;1.48;;;16.40;53.40;;;;;;5014565;28;20193;-70
2022/11/24 06:40:45;;;;;;;1.65;1.20;;;16.40;53.50;;;;;;5014767;28;20200;-70
2022/11/24 06:43:14;;;;;;;1.75;1.17;;;16.50;53.70;;;;;;5014850;28;20212;-70
2022/11/24 06:45:41;;;;;;;1.48;1.38;;;16.50;53.50;;;;;;5014325;28;20193;-70
2022/11/24 06:48:08;;;;;;;2.13;1.40;;;16.50;53.70;;;;;;5015408;28;20231;-70
2022/11/24 06:50:36;;;;;;;1.35;1.08;;;16.50;53.50;;;;;;5014242;28;20200;-70
2022/11/24 06:53:03;;;;;;;1.73;1.48;;;16.50;53.70;;;;;;5014068;28;20210;-70
2022/11/24 06:55:31;;;;;;;1.98;1.50;;;16.50;53.50;;;;;;5013944;28;20208;-69
2022/11/24 06:57:58;;;;;;;2.25;1.42;;;16.60;53.50;;;;;;5013979;28;20730;-70
2022/11/24 07:00:28;;;;;;;1.85;1.70;;;16.50;53.40;;;;;;5014246;28;20228;-70
2022/11/24 07:02:54;;;;;;;2.05;1.58;;;16.60;53.40;;;;;;5015203;28;20602;-70
2022/11/24 07:05:24;;;;;;;2.20;1.45;;;16.60;53.40;;;;;;5013879;28;20547;-70
2022/11/24 07:07:51;;;;;;;1.63;1.50;;;16.60;53.20;;;;;;5013702;28;20247;-70
2022/11/24 07:10:19;;;;;;;2.40;1.55;;;16.60;53.40;;;;;;5014899;28;20216;-70
2022/11/24 07:12:47;;;;;;;2.95;1.48;;;16.60;53.40;;;;;;5014899;28;20259;-70
2022/11/24 07:15:14;;;;;;;2.30;1.35;;;16.60;53.70;;;;;;5013536;28;20197;-70
2022/11/24 07:17:42;;;;;;;1.75;1.48;;;16.60;53.80;;;;;;5013511;28;20200;-70
2022/11/24 07:20:10;;;;;;;2.30;1.60;;;16.70;53.70;;;;;;5013964;28;20216;-70
2022/11/24 07:22:37;;;;;;;2.45;1.30;;;16.80;53.70;;;;;;5013754;28;20211;-70
2022/11/24 07:25:06;;;;;;;1.75;1.35;;;16.80;53.50;;;;;;5013694;28;20201;-70
2022/11/24 07:27:33;;;;;;;4.40;1.40;;;16.90;53.60;;;;;;5013537;28;20197;-70
2022/11/24 07:30:02;;;;;;;2.13;1.27;;;16.90;53.40;;;;;;5013206;28;20322;-70
2022/11/24 07:32:29;;;;;;;1.80;1.27;;;16.90;53.20;;;;;;5012684;28;20231;-70
2022/11/24 07:34:56;;;;;;;1.92;1.30;;;17.00;53.40;;;;;;5013536;28;20212;-70
2022/11/24 07:37:24;;;;;;;1.80;1.40;;;17.00;53.00;;;;;;5013430;28;20279;-69
2022/11/24 07:39:51;;;;;;;1.48;1.25;;;17.00;53.10;;;;;;5013221;28;20209;-70
2022/11/24 07:42:19;;;;;;;1.30;1.20;;;17.00;53.10;;;;;;5013415;28;20204;-69
2022/11/24 07:44:46;;;;;;;2.97;1.80;;;17.10;53.10;;;;;;4997053;28;20204;-70
2022/11/24 07:47:14;;;;;;;3.42;3.13;;;17.10;52.60;;;;;;5013168;28;20203;-70
2022/11/24 07:49:42;;;;;;;3.30;3.00;;;17.10;52.80;;;;;;5013199;28;20235;-70
2022/11/24 07:52:09;;;;;;;2.70;2.50;;;17.10;52.80;;;;;;5013650;28;20659;-70
2022/11/24 07:54:36;;;;;;;2.80;2.50;;;17.10;53.00;;;;;;5015110;28;20267;-70
2022/11/24 07:57:03;;;;;;;3.22;2.25;;;17.00;52.80;;;;;;5013472;28;20545;-70
2022/11/24 07:59:30;;;;;;;1.98;1.88;;;17.00;52.90;;;;;;5013237;28;20219;-70
2022/11/24 08:01:57;;;;;;;2.33;1.77;;;17.00;53.20;;;;;;5013622;28;20208;-70
2022/11/24 08:04:26;;;;;;;2.25;1.77;;;17.00;53.30;;;;;;5013996;28;20561;-70
2022/11/24 08:06:53;;;;;;;2.65;1.60;;;17.00;53.50;;;;;;5014814;28;20193;-70
2022/11/24 08:09:21;;;;;;;2.63;1.80;;;17.00;53.50;;;;;;5013158;28;20228;-70
2022/11/24 08:11:48;;;;;;;2.95;1.77;;;17.00;53.60;;;;;;5013402;28;20283;-70
2022/11/24 08:14:15;;;;;;;2.25;1.58;;;17.00;53.70;;;;;;5014216;28;20555;-70
2022/11/24 08:16:42;;;;;;;2.55;2.08;;;17.00;54.00;;;;;;5012961;28;20207;-70
2022/11/24 08:19:10;;;;;;;2.72;2.03;;;17.00;54.10;;;;;;5013988;28;20208;-70
2022/11/24 08:21:39;;;;;;;2.05;1.85;;;17.10;54.30;;;;;;5012714;28;20224;-70
2022/11/24 08:24:07;;;;;;;2.08;1.60;;;17.10;54.00;;;;;;5012983;28;20200;-70
2022/11/24 08:26:34;;;;;;;2.78;1.73;;;17.10;54.40;;;;;;5013191;28;20212;-70
2022/11/24 08:29:01;;;;;;;3.25;1.65;;;17.10;54.50;;;;;;5013275;28;20300;-70
2022/11/24 08:31:31;;;;;;;2.50;1.48;;;17.20;54.40;;;;;;5013608;28;20197;-70
2022/11/24 08:33:59;;;;;;;2.65;1.60;;;17.20;55.20;;;;;;5014237;28;20231;-70
2022/11/24 08:36:26;;;;;;;1.95;1.40;;;17.20;54.20;;;;;;5012836;28;20207;-70
2022/11/24 08:38:56;;;;;;;2.45;1.38;;;17.20;54.10;;;;;;5013195;28;20255;-70
2022/11/24 08:41:23;;;;;;;2.88;1.90;;;17.30;54.00;;;;;;5013326;28;20608;-70
2022/11/24 08:43:49;;;;;;;2.53;1.55;;;17.30;53.90;;;;;;5017595;28;20544;-70
2022/11/24 08:46:18;;;;;;;3.72;1.75;;;17.30;53.80;;;;;;5016370;28;20204;-70
2022/11/24 08:48:47;;;;;;;2.85;2.05;;;17.30;53.90;;;;;;5016600;28;20271;-69
2022/11/24 08:51:16;;;;;;;3.13;2.03;;;17.40;54.00;;;;;;5016821;28;20200;-70
2022/11/24 08:53:43;;;;;;;3.22;1.77;;;17.40;54.10;;;;;;5016717;28;20197;-70
2022/11/24 08:56:11;;;;;;;4.00;1.90;;;17.40;54.10;;;;;;5017709;28;20280;-70
2022/11/24 08:58:39;;;;;;;2.72;2.28;;;17.40;53.90;;;;;;5016729;28;20220;-70
2022/11/24 09:01:07;;;;;;;3.33;1.80;;;17.50;53.90;;;;;;5016212;28;20726;-70
2022/11/24 09:03:34;;;;;;;2.38;1.67;;;17.50;53.80;;;;;;5016302;28;20196;-70
2022/11/24 09:06:01;;;;;;;3.33;1.90;;;17.60;53.70;;;;;;5017270;28;20562;-70
2022/11/24 09:08:29;;;;;;;3.80;1.75;;;17.60;53.60;;;;;;5015992;28;20223;-70
2022/11/24 09:10:59;;;;;;;3.60;1.67;;;17.60;53.60;;;;;;5017370;28;20197;-70
2022/11/24 09:13:27;;;;;;;3.45;1.83;;;17.70;53.70;;;;;;5017090;28;20189;-70
2022/11/24 09:15:55;;;;;;;4.10;1.70;;;17.70;53.50;;;;;;5017161;28;20199;-70
2022/11/24 09:18:22;;;;;;;3.38;1.50;;;17.70;53.50;;;;;;5015994;28;20200;-70
2022/11/24 09:20:49;;;;;;;1.80;1.60;;;17.70;53.50;;;;;;5015922;28;20555;-70
2022/11/24 09:23:16;;;;;;;2.20;1.70;;;17.70;53.40;;;;;;5015925;28;20767;-70
2022/11/24 09:25:43;;;;;;;3.28;1.60;;;17.70;53.90;;;;;;5017093;28;20189;-70
2022/11/24 09:28:10;;;;;;;3.15;1.60;;;17.70;53.30;;;;;;5015629;28;20197;-70
2022/11/24 09:30:39;;;;;;;3.58;1.60;;;17.80;53.40;;;;;;5016049;28;20271;-70
2022/11/24 09:33:06;;;;;;;2.35;1.60;;;17.80;53.40;;;;;;5016572;28;20197;-69
2022/11/24 09:35:36;;;;;;;2.65;1.52;;;17.80;53.40;;;;;;5016188;28;20205;-69
2022/11/24 09:38:04;;;;;;;1.98;1.58;;;17.80;53.20;;;;;;5016416;28;20196;-69
2022/11/24 09:40:32;;;;;;;1.25;1.15;;;17.80;53.20;;;;;;5015533;28;20200;-69
2022/11/24 09:43:00;;;;;;;2.47;1.60;;;17.90;53.00;;;;;;5015428;28;20212;-69
2022/11/24 09:45:34;;;;;;;1.73;1.33;;;17.90;53.10;;;;;;5016646;28;20538;-69
2022/11/24 09:48:03;;;;;;;1.40;1.30;;;17.90;53.00;;;;;;4999958;28;20666;-69
2022/11/24 09:50:32;;;;;;;1.70;1.30;;;17.90;52.90;;;;;;5016661;28;20232;-69
2022/11/24 09:53:02;;;;;;;2.25;1.40;;;17.90;52.90;;;;;;5015861;28;20204;-69
2022/11/24 09:55:39;;;;;;;1.52;1.23;;;17.90;52.90;;;;;;5015913;28;20170;-69
2022/11/24 09:58:25;;;;;;;1.30;1.10;;;17.90;52.90;;;;;;5016878;28;20195;-69
2022/11/24 10:00:52;;;;;;;2.13;1.23;;;17.90;52.80;;;;;;5015153;28;20185;-69
2022/11/24 10:03:24;;;;;;;2.05;1.30;;;18.00;53.00;;;;;;5015327;28;20655;-69
2022/11/24 10:05:52;;;;;;;1.42;1.20;;;17.90;52.80;;;;;;5015959;28;20204;-69
2022/11/24 10:08:45;;;;;;;1.50;1.40;;;18.00;52.80;;;;;;5015319;28;20205;-69
2022/11/24 10:11:13;;;;;;;1.30;1.20;;;18.00;52.60;;;;;;5018588;28;20181;-69
2022/11/24 10:13:49;;;;;;;2.50;1.13;;;18.00;53.40;;;;;;5014942;28;20204;-69
2022/11/24 10:16:19;;;;;;;1.65;1.20;;;18.00;52.90;;;;;;5015388;28;20646;-69
2022/11/24 10:18:57;;;;;;;2.35;1.40;;;18.00;52.80;;;;;;5016115;28;20709;-69
2022/11/24 10:21:34;;;;;;;3.25;1.40;;;18.00;52.80;;;;;;5015022;28;20200;-69
2022/11/24 10:24:24;;;;;;;1.55;1.10;;;18.10;52.80;;;;;;5015794;28;20189;-69
2022/11/24 10:26:53;;;;;;;1.35;1.20;;;18.10;52.70;;;;;;5014843;28;20292;-69
2022/11/24 10:29:21;;;;;;;1.75;1.25;;;18.20;52.70;;;;;;5014776;28;20224;-69
2022/11/24 10:31:48;;;;;;;2.45;1.20;;;18.20;52.50;;;;;;5014604;28;20197;-69
2022/11/24 10:34:18;;;;;;;1.25;1.10;;;18.20;52.50;;;;;;5014626;28;20557;-69
2022/11/24 10:36:48;;;;;;;1.15;1.05;;;18.30;52.50;;;;;;5014578;28;20664;-69
2022/11/24 10:39:17;;;;;;;1.88;1.30;;;18.30;52.40;;;;;;5014603;28;20309;-69
2022/11/24 10:41:48;;;;;;;2.17;1.20;;;18.30;52.40;;;;;;5014849;28;20220;-69
2022/11/24 10:44:15;;;;;;;1.45;1.20;;;18.30;52.40;;;;;;5015057;28;20208;-69
2022/11/24 10:46:42;;;;;;;1.20;1.10;;;18.30;52.50;;;;;;5016290;28;20197;-69
2022/11/24 10:49:15;;;;;;;1.27;1.08;;;18.30;52.40;;;;;;5014372;28;20224;-69
2022/11/24 10:51:51;;;;;;;1.27;1.15;;;18.30;52.40;;;;;;5015673;28;20238;-69
2022/11/24 10:54:20;;;;;;;1.20;1.10;;;18.30;52.30;;;;;;5014954;28;20210;-69
2022/11/24 10:56:47;;;;;;;1.30;1.10;;;18.30;52.30;;;;;;5014065;28;20205;-69
2022/11/24 10:59:35;;;;;;;1.20;1.08;;;18.40;52.20;;;;;;5014100;28;20275;-69
2022/11/24 11:02:02;;;;;;;1.98;1.30;;;18.30;52.20;;;;;;5014061;28;20197;-69
2022/11/24 11:04:31;;;;;;;1.67;1.20;;;18.40;52.00;;;;;;5013970;28;20295;-69
2022/11/24 11:07:15;;;;;;;1.00;1.00;;;18.50;52.20;;;;;;5013895;28;20553;-69
2022/11/24 11:09:42;;;;;;;1.85;1.10;;;18.50;52.00;;;;;;5013799;28;20232;-69
2022/11/24 11:12:09;;;;;;;1.25;1.13;;;18.50;51.90;;;;;;5013853;28;20205;-69
2022/11/24 11:14:36;;;;;;;1.38;1.27;;;18.50;51.80;;;;;;5013815;28;20325;-69
2022/11/24 11:17:23;;;;;;;0.82;0.82;;;18.50;51.80;;;;;;5015211;28;20275;-69
2022/11/24 11:19:53;;;;;;;2.83;1.10;;;18.50;51.80;;;;;;5013638;28;20224;-69
2022/11/24 11:22:23;;;;;;;1.58;0.90;;;18.50;51.80;;;;;;5014853;28;20200;-69
2022/11/24 11:25:03;;;;;;;1.85;1.00;;;18.50;51.80;;;;;;4997662;28;20220;-69
2022/11/24 11:27:32;;;;;;;1.20;0.98;;;18.50;51.80;;;;;;5015114;28;20192;-69
2022/11/24 11:30:18;;;;;;;1.23;1.13;;;18.50;51.80;;;;;;5013378;28;20258;-69
2022/11/24 11:32:52;;;;;;;0.90;0.90;;;18.60;51.70;;;;;;5013386;28;20220;-69
2022/11/24 11:35:19;;;;;;;1.00;0.93;;;18.60;51.50;;;;;;5014242;28;20193;-69
2022/11/24 11:37:48;;;;;;;1.00;0.95;;;18.60;51.50;;;;;;5013243;28;20205;-69
2022/11/24 11:40:17;;;;;;;1.48;1.00;;;18.70;51.40;;;;;;5013905;28;20217;-69
2022/11/24 11:42:47;;;;;;;1.35;1.13;;;18.70;51.50;;;;;;5013596;28;20595;-69
2022/11/24 11:45:15;;;;;;;1.05;0.95;;;18.80;51.50;;;;;;5013267;28;20193;-69
2022/11/24 11:47:45;;;;;;;1.00;1.00;;;18.70;51.30;;;;;;5013167;28;20266;-69
2022/11/24 11:50:12;;;;;;;1.38;1.00;;;18.70;51.40;;;;;;5013174;28;20232;-70
2022/11/24 11:53:01;;;;;;;1.42;1.02;;;18.80;51.40;;;;;;5012965;28;20204;-70
2022/11/24 11:55:51;;;;;;;1.20;1.10;;;18.70;51.30;;;;;;5013646;28;20196;-70
2022/11/24 11:58:49;;;;;;;0.93;0.93;;;18.80;51.40;;;;;;5012920;28;20259;-70
2022/11/24 12:01:29;;;;;;;1.40;1.30;;;18.70;51.40;;;;;;5012932;28;20193;-70
2022/11/24 12:03:59;;;;;;;1.10;1.05;;;18.70;51.40;;;;;;5013016;28;20192;-70
2022/11/24 12:06:36;;;;;;;1.83;1.20;;;18.70;51.60;;;;;;5012844;28;20287;-70
2022/11/24 12:09:09;;;;;;;1.40;1.30;;;18.70;51.60;;;;;;5012842;28;20223;-69
2022/11/24 12:11:39;;;;;;;1.50;1.40;;;18.60;51.60;;;;;;5012868;28;20227;-69
2022/11/24 12:14:13;;;;;;;4.07;2.65;;;18.60;51.50;;;;;;5012783;28;20201;-69
2022/11/24 12:16:45;;;;;;;5.82;5.22;;;18.60;51.60;;;;;;5012500;28;20205;-69
2022/11/24 12:19:19;;;;;;;8.98;6.18;;;18.60;51.60;;;;;;5012739;28;20251;-69
2022/11/24 12:21:51;;;;;;;4.20;3.00;;;18.60;51.60;;;;;;5012718;28;20196;-69
2022/11/24 12:24:22;;;;;;;2.40;2.20;;;18.60;51.70;;;;;;5012693;28;20287;-69
2022/11/24 12:26:52;;;;;;;2.20;1.92;;;18.60;51.80;;;;;;5013172;28;20554;-69
2022/11/24 12:29:45;;;;;;;1.98;1.73;;;18.60;51.80;;;;;;5012512;28;20224;-69
2022/11/24 12:32:22;;;;;;;1.40;1.30;;;18.60;51.80;;;;;;4998678;28;20623;-69
2022/11/24 12:34:51;;;;;;;1.38;1.10;;;18.70;51.80;;;;;;5012681;28;20188;-69
2022/11/24 12:37:31;;;;;;;1.58;1.40;;;18.80;51.60;;;;;;5012571;28;20264;-69
2022/11/24 12:40:04;;;;;;;1.48;1.25;;;18.80;51.30;;;;;;5013808;28;20718;-69
2022/11/24 12:42:35;;;;;;;2.03;1.23;;;18.80;51.30;;;;;;5012569;28;20599;-69
2022/11/24 12:45:22;;;;;;;1.13;1.02;;;18.90;51.40;;;;;;5012482;28;20201;-69
2022/11/24 12:48:02;;;;;;;1.30;1.20;;;18.90;51.40;;;;;;5012497;28;20632;-69
2022/11/24 12:50:33;;;;;;;1.58;1.30;;;18.90;51.30;;;;;;5012721;28;20588;-69
2022/11/24 12:53:05;;;;;;;1.70;1.20;;;19.00;51.40;;;;;;5012404;28;20189;-69
2022/11/24 12:55:33;;;;;;;1.88;1.30;;;19.00;51.30;;;;;;5012591;28;20299;-69
2022/11/24 12:58:05;;;;;;;1.98;1.40;;;19.00;51.20;;;;;;5012474;28;20200;-69
2022/11/24 13:00:35;;;;;;;2.00;1.40;;;19.00;50.90;;;;;;5013964;28;20177;-69